Time;durP1;ratioP1;P1;durP2;ratioP2;P2;SDS_P1;SDS_P2;PMS_P1;PMS_P2;Temp;Humidity;BMP_temperature;BMP_pressure;BME280_temperature;BME280_humidity;BME280_pressure;Samples;Min_cycle;Max_cycle;Signal;HPM_P1;HPM_P2
2021/01/23 00:00:14;;;;;;;74.83;35.43;;;;;;;6.00;100.00;101347.38;5064973;28;20183;-72
2021/01/23 00:02:40;;;;;;;84.87;53.40;;;;;;;6.00;100.00;101344.75;5063122;28;20326;-70
2021/01/23 00:05:06;;;;;;;120.50;108.57;;;;;;;5.97;100.00;101343.13;5068684;28;20596;-69
2021/01/23 00:07:32;;;;;;;194.30;179.03;;;;;;;5.91;100.00;101339.91;5072815;28;20676;-69
2021/01/23 00:09:57;;;;;;;100.10;67.47;;;;;;;5.82;100.00;101335.84;5072807;28;20457;-70
2021/01/23 00:12:23;;;;;;;247.07;229.23;;;;;;;5.82;100.00;101349.72;5071347;28;20164;-70
2021/01/23 00:14:48;;;;;;;220.10;203.43;;;;;;;5.97;100.00;101339.63;5071871;28;20192;-70
2021/01/23 00:17:14;;;;;;;129.77;117.17;;;;;;;5.93;100.00;101344.13;5073150;28;20579;-69
2021/01/23 00:19:39;;;;;;;105.70;77.57;;;;;;;5.96;100.00;101343.16;5068743;28;20169;-71
2021/01/23 00:22:05;;;;;;;82.90;43.17;;;;;;;5.90;100.00;101346.00;5071384;28;20168;-69
2021/01/23 00:24:30;;;;;;;75.80;29.60;;;;;;;5.99;100.00;101343.91;5044702;28;20580;-69
2021/01/23 00:26:56;;;;;;;76.13;25.67;;;;;;;5.89;100.00;101342.50;5056624;28;20311;-69
2021/01/23 00:29:21;;;;;;;74.60;29.07;;;;;;;5.85;100.00;101339.19;5071735;28;20204;-70
2021/01/23 00:31:47;;;;;;;79.80;30.40;;;;;;;5.74;100.00;101336.13;5057067;28;20238;-70
2021/01/23 00:34:12;;;;;;;80.50;29.60;;;;;;;5.64;100.00;101337.38;5056925;28;20161;-70
2021/01/23 00:36:38;;;;;;;73.20;26.03;;;;;;;5.60;100.00;101340.16;5069705;28;20584;-69
2021/01/23 00:39:05;;;;;;;75.67;28.77;;;;;;;5.67;100.00;101337.25;5070991;28;20183;-70
2021/01/23 00:41:32;;;;;;;81.10;30.27;;;;;;;5.68;100.00;101333.75;5054592;28;20429;-71
2021/01/23 00:43:57;;;;;;;77.40;33.60;;;;;;;5.65;100.00;101336.44;5072328;28;20387;-71
2021/01/23 00:46:23;;;;;;;80.90;34.13;;;;;;;5.58;100.00;101334.97;5072258;28;20947;-72
2021/01/23 00:48:49;;;;;;;80.97;40.57;;;;;;;5.49;100.00;101327.50;5069218;28;20189;-70
2021/01/23 00:51:14;;;;;;;83.70;35.23;;;;;;;5.60;100.00;101332.34;5058382;28;20184;-70
2021/01/23 00:53:41;;;;;;;83.73;41.23;;;;;;;5.71;100.00;101323.19;5060887;28;20424;-70
2021/01/23 00:56:06;;;;;;;88.50;41.33;;;;;;;5.63;100.00;101330.44;5064208;28;20196;-69
2021/01/23 00:58:32;;;;;;;101.60;53.43;;;;;;;5.57;100.00;101322.84;5062656;28;20522;-69
2021/01/23 01:00:58;;;;;;;85.97;38.47;;;;;;;5.47;100.00;101322.34;5067238;28;20549;-70
2021/01/23 01:03:23;;;;;;;83.83;39.73;;;;;;;5.37;100.00;101322.75;5061633;28;20173;-71
2021/01/23 01:05:49;;;;;;;84.83;45.20;;;;;;;5.28;100.00;101321.28;5063357;28;20168;-71
2021/01/23 01:08:15;;;;;;;84.00;42.23;;;;;;;5.33;100.00;101323.75;5069818;28;20615;-70
2021/01/23 01:10:45;;;;;;;89.13;49.13;;;;;;;5.39;100.00;101321.78;5066057;28;20172;-71
2021/01/23 01:13:12;;;;;;;87.87;47.93;;;;;;;5.33;100.00;101319.38;5056041;28;20453;-68
2021/01/23 01:15:38;;;;;;;97.03;54.37;;;;;;;5.25;100.00;101316.19;5060868;28;20450;-69
2021/01/23 01:18:03;;;;;;;94.50;54.60;;;;;;;5.26;100.00;101317.91;5069437;28;20422;-70
2021/01/23 01:20:29;;;;;;;94.40;59.07;;;;;;;5.32;100.00;101322.03;5063145;28;20173;-70
2021/01/23 01:22:54;;;;;;;116.90;59.87;;;;;;;5.20;100.00;101324.16;5065380;28;20173;-72
2021/01/23 01:25:19;;;;;;;94.20;68.73;;;;;;;5.24;100.00;101328.38;5068939;28;20172;-71
2021/01/23 01:27:45;;;;;;;93.13;61.43;;;;;;;5.23;100.00;101326.69;5067916;28;20216;-71
2021/01/23 01:30:11;;;;;;;101.37;61.80;;;;;;;5.20;100.00;101318.97;5058130;28;20702;-71
2021/01/23 01:32:37;;;;;;;115.63;74.73;;;;;;;5.22;100.00;101311.97;5051067;28;20631;-70
2021/01/23 01:35:02;;;;;;;129.67;106.07;;;;;;;5.24;100.00;101314.50;5053944;28;20453;-70
2021/01/23 01:37:28;;;;;;;125.70;89.80;;;;;;;5.24;100.00;101309.28;5051857;28;20227;-71
2021/01/23 01:39:53;;;;;;;124.70;87.13;;;;;;;5.17;100.00;101305.22;5064098;28;20658;-70
2021/01/23 01:42:19;;;;;;;111.83;83.63;;;;;;;5.23;100.00;101305.00;5068878;28;20252;-70
2021/01/23 01:44:44;;;;;;;120.63;101.97;;;;;;;5.22;100.00;101301.53;5058491;28;20214;-74
2021/01/23 01:47:10;;;;;;;127.20;106.40;;;;;;;5.06;100.00;101297.75;5066136;28;20216;-70
2021/01/23 01:49:36;;;;;;;139.20;124.43;;;;;;;5.15;100.00;101294.84;5057504;28;20188;-71
2021/01/23 01:52:02;;;;;;;121.63;109.30;;;;;;;5.40;100.00;101287.00;5068490;28;20180;-72
2021/01/23 01:54:27;;;;;;;153.67;139.40;;;;;;;5.42;100.00;101286.94;5066990;28;20422;-71
2021/01/23 01:56:53;;;;;;;146.80;132.37;;;;;;;5.37;100.00;101287.13;5067048;28;20168;-71
2021/01/23 01:59:19;;;;;;;123.83;89.07;;;;;;;5.29;100.00;101290.00;5056964;28;20229;-70
2021/01/23 02:01:44;;;;;;;100.20;69.70;;;;;;;5.43;100.00;101286.88;5069685;28;20561;-71
2021/01/23 02:04:53;;;;;;;143.63;130.63;;;;;;;5.74;100.00;101286.59;5060478;28;20180;-69
2021/01/23 02:07:28;;;;;;;96.90;55.80;;;;;;;5.68;100.00;101276.41;5065636;28;20179;-73
2021/01/23 02:10:29;;;;;;;89.77;51.97;;;;;;;5.92;100.00;101279.00;5068827;28;20458;-71
2021/01/23 02:13:25;;;;;;;78.10;34.70;;;;;;;6.08;100.00;101269.66;4994744;28;20442;-72
2021/01/23 02:15:59;;;;;;;86.20;39.47;;;;;;;5.92;100.00;101264.22;5064712;28;20507;-72
2021/01/23 02:18:29;;;;;;;57.73;19.00;;;;;;;6.06;100.00;101267.13;5053286;28;20439;-71
2021/01/23 02:21:11;;;;;;;64.30;22.40;;;;;;;5.92;100.00;101255.53;5062095;28;20426;-70
2021/01/23 02:23:38;;;;;;;60.80;20.70;;;;;;;6.14;100.00;101263.38;5066973;28;20535;-71
2021/01/23 02:26:12;;;;;;;65.00;21.90;;;;;;;6.34;100.00;101263.41;5065548;28;20412;-70
2021/01/23 02:28:59;;;;;;;66.47;22.60;;;;;;;6.18;100.00;101260.56;5064795;28;20548;-71
2021/01/23 02:31:27;;;;;;;62.73;20.17;;;;;;;6.13;100.00;101259.06;5070331;28;20419;-73
2021/01/23 02:33:56;;;;;;;55.63;20.47;;;;;;;6.26;100.00;101258.50;5068533;28;20426;-72
2021/01/23 02:36:22;;;;;;;54.50;19.00;;;;;;;6.47;100.00;101254.16;5057168;28;20454;-70
2021/01/23 02:38:49;;;;;;;55.40;18.37;;;;;;;6.89;100.00;101248.91;5057073;28;20949;-71
2021/01/23 02:41:16;;;;;;;58.87;19.10;;;;;;;7.05;100.00;101254.28;5050957;28;20539;-70
2021/01/23 02:43:43;;;;;;;54.67;17.30;;;;;;;7.13;100.00;101246.97;5064575;28;20465;-73
2021/01/23 02:46:16;;;;;;;55.10;18.80;;;;;;;7.13;100.00;101246.13;5066911;28;20446;-71
2021/01/23 02:48:42;;;;;;;56.50;17.87;;;;;;;7.08;100.00;101254.16;5066073;28;20504;-71
2021/01/23 02:51:27;;;;;;;55.03;16.17;;;;;;;7.02;100.00;101258.78;5067934;28;20430;-71
2021/01/23 02:54:16;;;;;;;56.47;16.33;;;;;;;6.92;100.00;101251.34;5064973;28;20449;-71
2021/01/23 02:56:43;;;;;;;54.83;15.50;;;;;;;6.72;100.00;101247.91;5058489;28;20510;-72
2021/01/23 02:59:11;;;;;;;58.03;15.63;;;;;;;6.56;100.00;101247.69;5066938;28;20438;-72
2021/01/23 03:01:41;;;;;;;57.37;17.63;;;;;;;6.38;100.00;101242.34;5060778;28;21003;-71
2021/01/23 03:04:08;;;;;;;61.80;18.30;;;;;;;6.22;100.00;101250.88;5052696;28;20400;-70
2021/01/23 03:06:36;;;;;;;69.00;21.97;;;;;;;6.06;100.00;101256.69;5062804;28;20814;-70
2021/01/23 03:09:19;;;;;;;70.23;24.23;;;;;;;5.87;100.00;101257.44;5064227;28;20473;-71
2021/01/23 03:11:45;;;;;;;68.60;23.10;;;;;;;5.65;100.00;101265.22;5056381;28;20825;-72
2021/01/23 03:14:11;;;;;;;69.57;21.17;;;;;;;5.60;100.00;101256.75;5069524;28;20460;-70
2021/01/23 03:16:37;;;;;;;63.40;21.93;;;;;;;5.63;100.00;101259.22;5064454;28;20454;-70
2021/01/23 03:19:04;;;;;;;70.47;22.77;;;;;;;5.49;100.00;101257.97;5064689;28;20169;-71
2021/01/23 03:21:30;;;;;;;67.80;23.10;;;;;;;5.42;100.00;101255.66;5061611;28;20418;-71
2021/01/23 03:23:55;;;;;;;67.60;24.10;;;;;;;5.29;100.00;101256.13;5060219;28;20790;-70
2021/01/23 03:26:21;;;;;;;77.10;23.20;;;;;;;5.19;100.00;101251.28;5070108;28;20991;-70
2021/01/23 03:28:47;;;;;;;68.90;24.47;;;;;;;5.20;100.00;101248.63;5064678;28;20192;-70
2021/01/23 03:31:12;;;;;;;74.90;26.00;;;;;;;5.06;100.00;101248.28;5070792;28;20329;-71
2021/01/23 03:33:38;;;;;;;65.53;25.00;;;;;;;4.98;100.00;101247.69;5070700;28;20166;-70
2021/01/23 03:36:04;;;;;;;75.10;25.10;;;;;;;5.04;100.00;101241.44;5056686;28;20189;-71
2021/01/23 03:38:29;;;;;;;68.43;26.23;;;;;;;5.08;100.00;101245.63;5058535;28;20207;-70
2021/01/23 03:40:55;;;;;;;71.10;25.57;;;;;;;4.95;100.00;101242.63;5069418;28;20433;-72
2021/01/23 03:43:20;;;;;;;65.77;28.27;;;;;;;4.89;100.00;101254.09;5069947;28;20172;-72
2021/01/23 03:45:46;;;;;;;63.93;25.37;;;;;;;4.84;100.00;101245.59;5060288;28;20197;-72
2021/01/23 03:48:11;;;;;;;72.90;25.57;;;;;;;5.01;100.00;101251.06;5053753;28;20169;-70
2021/01/23 03:50:37;;;;;;;67.30;26.77;;;;;;;4.97;100.00;101246.00;5066788;28;20176;-71
2021/01/23 03:53:02;;;;;;;65.30;26.53;;;;;;;4.90;100.00;101249.72;5070984;28;20206;-73
2021/01/23 03:55:28;;;;;;;59.97;23.10;;;;;;;4.99;100.00;101252.88;5059705;28;20177;-71
2021/01/23 03:57:53;;;;;;;66.33;21.70;;;;;;;5.06;100.00;101245.66;5042270;28;20241;-70
2021/01/23 04:00:19;;;;;;;63.77;23.53;;;;;;;4.99;100.00;101246.81;5058432;28;20168;-74
2021/01/23 04:02:45;;;;;;;68.00;23.57;;;;;;;4.96;100.00;101244.31;5061284;28;20720;-69
2021/01/23 04:05:11;;;;;;;67.80;25.40;;;;;;;4.99;100.00;101241.63;5072601;28;20422;-71
2021/01/23 04:07:36;;;;;;;59.90;22.17;;;;;;;5.04;100.00;101241.44;5062929;28;20231;-70
2021/01/23 04:10:04;;;;;;;61.77;22.43;;;;;;;4.96;100.00;101239.94;5053983;28;20463;-71
2021/01/23 04:12:29;;;;;;;65.20;24.93;;;;;;;4.99;100.00;101231.19;5062066;28;20549;-69
2021/01/23 04:14:54;;;;;;;61.77;22.83;;;;;;;4.97;100.00;101222.56;5067825;28;20996;-71
2021/01/23 04:17:20;;;;;;;67.40;25.30;;;;;;;4.87;100.00;101229.03;5070887;28;20181;-70
2021/01/23 04:19:45;;;;;;;71.57;23.63;;;;;;;4.77;100.00;101241.50;5069130;28;20230;-69
2021/01/23 04:22:11;;;;;;;63.43;22.67;;;;;;;4.98;100.00;101245.94;5070985;28;20174;-70
2021/01/23 04:24:36;;;;;;;68.40;24.40;;;;;;;4.87;100.00;101236.81;5067497;28;20540;-69
2021/01/23 04:27:02;;;;;;;62.07;24.07;;;;;;;4.94;100.00;101239.16;5059213;28;20216;-70
2021/01/23 04:29:28;;;;;;;65.03;23.70;;;;;;;4.90;100.00;101231.50;5061566;28;20262;-70
2021/01/23 04:31:53;;;;;;;61.00;24.50;;;;;;;4.82;100.00;101225.72;5064797;28;20188;-69
2021/01/23 04:34:19;;;;;;;66.00;24.97;;;;;;;4.80;100.00;101241.41;5060532;28;20168;-70
2021/01/23 04:36:44;;;;;;;64.77;22.93;;;;;;;5.00;100.00;101241.56;5067413;28;20233;-70
2021/01/23 04:39:10;;;;;;;58.20;21.60;;;;;;;5.08;100.00;101240.44;5055701;28;20180;-72
2021/01/23 04:41:35;;;;;;;59.30;20.57;;;;;;;5.04;100.00;101233.63;5057404;28;20184;-72
2021/01/23 04:44:01;;;;;;;66.37;23.17;;;;;;;4.98;100.00;101243.34;5066309;28;20191;-73
2021/01/23 04:46:26;;;;;;;58.53;21.50;;;;;;;5.21;100.00;101237.34;5072051;28;20239;-73
2021/01/23 04:48:52;;;;;;;54.80;17.60;;;;;;;5.26;100.00;101224.97;5070469;28;20214;-74
2021/01/23 04:51:17;;;;;;;56.60;19.20;;;;;;;5.15;100.00;101234.09;5070522;28;20171;-71
2021/01/23 04:53:47;;;;;;;57.30;18.87;;;;;;;5.12;100.00;101232.44;5057688;28;20635;-72
2021/01/23 04:56:12;;;;;;;57.13;20.87;;;;;;;5.21;100.00;101234.72;5054311;28;20165;-70
2021/01/23 04:58:38;;;;;;;55.20;20.00;;;;;;;5.17;100.00;101232.28;5057053;28;20437;-72
2021/01/23 05:01:03;;;;;;;58.30;19.20;;;;;;;5.12;100.00;101239.41;5064363;28;20616;-72
2021/01/23 05:03:29;;;;;;;54.07;17.70;;;;;;;5.10;100.00;101234.25;5072134;28;20581;-74
2021/01/23 05:06:07;;;;;;;59.30;20.90;;;;;;;5.06;100.00;101245.66;5070468;28;20168;-70
2021/01/23 05:08:37;;;;;;;55.00;19.10;;;;;;;5.16;100.00;101238.41;5070511;28;20192;-69
2021/01/23 05:11:03;;;;;;;54.60;16.77;;;;;;;5.13;100.00;101235.88;5069420;28;20499;-71
2021/01/23 05:13:29;;;;;;;53.10;18.67;;;;;;;5.21;100.00;101234.72;5053429;28;20430;-71
2021/01/23 05:15:54;;;;;;;57.00;18.63;;;;;;;5.28;100.00;101227.50;5052197;28;20396;-71
2021/01/23 05:18:20;;;;;;;64.93;22.97;;;;;;;5.31;100.00;101229.19;5053345;28;20177;-72
2021/01/23 05:20:53;;;;;;;58.33;21.17;;;;;;;5.31;100.00;101218.75;5070318;28;20168;-75
2021/01/23 05:23:25;;;;;;;59.00;20.43;;;;;;;5.24;100.00;101218.97;5067566;28;20298;-71
2021/01/23 05:25:53;;;;;;;63.17;20.80;;;;;;;5.26;100.00;101213.69;5065954;28;20426;-72
2021/01/23 05:28:36;;;;;;;57.27;20.80;;;;;;;5.25;100.00;101214.63;5068671;28;20477;-70
2021/01/23 05:31:03;;;;;;;62.20;23.70;;;;;;;5.18;100.00;101210.53;5055507;28;20426;-71
2021/01/23 05:33:31;;;;;;;62.67;20.23;;;;;;;5.34;100.00;101209.06;5069985;28;20415;-70
2021/01/23 05:36:02;;;;;;;58.93;19.50;;;;;;;5.53;100.00;101209.22;5056089;28;20439;-71
2021/01/23 05:38:31;;;;;;;64.83;21.53;;;;;;;5.47;100.00;101209.44;5052276;28;20470;-71
2021/01/23 05:41:06;;;;;;;65.67;20.87;;;;;;;5.44;100.00;101212.16;5051470;28;20823;-71
2021/01/23 05:43:40;;;;;;;58.43;20.90;;;;;;;5.41;100.00;101207.06;5055215;28;20435;-72
2021/01/23 05:46:08;;;;;;;55.30;18.93;;;;;;;5.52;100.00;101220.56;5059466;28;20543;-72
2021/01/23 05:48:35;;;;;;;58.27;19.20;;;;;;;5.52;100.00;101224.00;5063217;28;20454;-73
2021/01/23 05:51:02;;;;;;;62.30;20.40;;;;;;;5.51;100.00;101224.03;5052032;28;20396;-71
2021/01/23 05:53:29;;;;;;;58.33;22.23;;;;;;;5.50;100.00;101220.59;5054557;28;20419;-73
2021/01/23 05:55:59;;;;;;;69.93;20.80;;;;;;;5.63;100.00;101213.16;5062222;28;20925;-70
2021/01/23 05:58:25;;;;;;;54.70;21.20;;;;;;;5.67;100.00;101208.66;5069336;28;20422;-72
2021/01/23 06:00:54;;;;;;;51.97;19.33;;;;;;;5.73;100.00;101204.06;5061727;28;20453;-71
2021/01/23 06:03:20;;;;;;;52.20;18.10;;;;;;;5.69;100.00;101201.66;5071902;28;20425;-73
2021/01/23 06:05:46;;;;;;;54.63;20.70;;;;;;;5.71;100.00;101210.25;5066263;28;20423;-69
2021/01/23 06:08:12;;;;;;;59.13;19.03;;;;;;;5.84;100.00;101204.50;5069815;28;20489;-71
2021/01/23 06:10:38;;;;;;;52.93;16.83;;;;;;;5.83;100.00;101201.97;5055388;28;20488;-71
2021/01/23 06:13:05;;;;;;;61.47;19.60;;;;;;;5.88;100.00;101206.97;5053016;28;20165;-71
2021/01/23 06:15:36;;;;;;;61.23;19.03;;;;;;;5.87;100.00;101207.91;5067480;28;20439;-70
2021/01/23 06:18:27;;;;;;;51.83;17.97;;;;;;;5.98;100.00;101204.00;5054260;28;20434;-72
2021/01/23 06:20:58;;;;;;;52.97;18.20;;;;;;;6.14;100.00;101206.81;5071382;28;20407;-73
2021/01/23 06:23:50;;;;;;;58.10;21.13;;;;;;;6.17;100.00;101204.09;5050873;28;20430;-73
2021/01/23 06:26:17;;;;;;;58.97;19.77;;;;;;;6.25;100.00;101199.41;5065349;28;20892;-72
2021/01/23 06:28:42;;;;;;;56.70;19.30;;;;;;;6.27;100.00;101194.09;5044148;28;20451;-72
2021/01/23 06:31:27;;;;;;;56.90;19.40;;;;;;;6.32;100.00;101186.94;5056479;28;20427;-72
2021/01/23 06:33:52;;;;;;;59.50;19.90;;;;;;;6.31;100.00;101188.72;5059457;28;20318;-71
2021/01/23 06:36:19;;;;;;;57.97;20.33;;;;;;;6.40;100.00;101187.47;5051439;28;20466;-72
2021/01/23 06:39:07;;;;;;;60.17;19.37;;;;;;;6.48;100.00;101190.59;5051563;28;20173;-72
2021/01/23 06:41:37;;;;;;;57.30;18.80;;;;;;;6.59;100.00;101192.78;5062041;28;20498;-69
2021/01/23 06:44:17;;;;;;;55.07;17.17;;;;;;;6.75;100.00;101188.56;5050671;28;20435;-69
2021/01/23 06:47:03;;;;;;;58.50;19.07;;;;;;;6.86;100.00;101186.31;5054412;28;20922;-70
2021/01/23 06:49:28;;;;;;;63.33;19.17;;;;;;;6.97;100.00;101174.56;5050297;28;20489;-68
2021/01/23 06:52:12;;;;;;;57.10;20.13;;;;;;;7.15;100.00;101176.34;5065619;28;20415;-71
2021/01/23 06:54:38;;;;;;;65.40;20.20;;;;;;;7.27;100.00;101181.03;5066044;28;20204;-69
2021/01/23 06:57:06;;;;;;;64.40;27.53;;;;;;;7.40;100.00;101181.28;5070488;28;20784;-73
2021/01/23 06:59:36;;;;;;;63.27;24.60;;;;;;;7.55;100.00;101182.34;5070757;28;20768;-71
2021/01/23 07:02:04;;;;;;;67.43;20.50;;;;;;;7.67;100.00;101173.91;5070830;28;20403;-69
2021/01/23 07:04:43;;;;;;;65.60;22.17;;;;;;;7.68;100.00;101167.78;5072612;28;20548;-69
2021/01/23 07:07:09;;;;;;;64.57;22.50;;;;;;;7.77;100.00;101164.72;5075177;28;20418;-68
2021/01/23 07:09:47;;;;;;;69.50;23.50;;;;;;;7.86;100.00;101160.78;5072965;28;20438;-69
2021/01/23 07:12:37;;;;;;;65.23;28.03;;;;;;;7.86;100.00;101166.03;5065682;28;20460;-72
2021/01/23 07:15:08;;;;;;;70.10;28.07;;;;;;;7.93;100.00;101170.03;5054920;28;20442;-71
2021/01/23 07:17:39;;;;;;;80.73;24.97;;;;;;;8.05;100.00;101165.06;5073211;28;20409;-71
2021/01/23 07:20:09;;;;;;;68.07;26.47;;;;;;;8.10;100.00;101167.47;5072006;28;20402;-68
2021/01/23 07:22:39;;;;;;;69.67;25.40;;;;;;;8.09;100.00;101170.16;5049995;28;20412;-70
2021/01/23 07:25:06;;;;;;;78.47;27.40;;;;;;;8.25;100.00;101176.31;5054486;28;20402;-69
2021/01/23 07:27:33;;;;;;;65.80;25.70;;;;;;;8.28;100.00;101178.78;5068118;28;20456;-69
2021/01/23 07:29:59;;;;;;;67.83;27.23;;;;;;;8.38;100.00;101166.09;5060961;28;20602;-69
2021/01/23 07:32:34;;;;;;;58.30;22.43;;;;;;;8.57;100.00;101166.84;5074390;28;20491;-69
2021/01/23 07:35:00;;;;;;;62.03;18.00;;;;;;;8.79;100.00;101169.22;5058129;28;20157;-69
2021/01/23 07:37:39;;;;;;;61.50;16.10;;;;;;;8.93;100.00;101161.47;5074170;28;20419;-70
2021/01/23 07:40:06;;;;;;;64.20;17.20;;;;;;;8.98;100.00;101164.66;5074085;28;20172;-71
2021/01/23 07:42:33;;;;;;;57.30;16.07;;;;;;;9.04;100.00;101163.50;5072847;28;20422;-70
2021/01/23 07:45:06;;;;;;;60.60;15.27;;;;;;;9.15;100.00;101161.19;5067168;28;20443;-70
2021/01/23 07:47:32;;;;;;;60.90;16.23;;;;;;;9.30;100.00;101159.50;5054005;28;20415;-68
2021/01/23 07:50:11;;;;;;;59.40;16.80;;;;;;;9.55;100.00;101162.44;5068221;28;20457;-69
2021/01/23 07:52:38;;;;;;;56.30;14.73;;;;;;;9.64;100.00;101154.06;5073255;28;20168;-71
2021/01/23 07:55:06;;;;;;;63.87;19.00;;;;;;;9.67;100.00;101158.28;5060805;28;20391;-68
2021/01/23 07:57:31;;;;;;;59.33;15.17;;;;;;;9.90;100.00;101155.22;5065548;28;20438;-70
2021/01/23 07:59:58;;;;;;;56.83;15.30;;;;;;;10.09;100.00;101154.16;5045796;28;20422;-70
2021/01/23 08:02:24;;;;;;;57.33;15.20;;;;;;;10.14;100.00;101150.31;5059086;28;20164;-71
2021/01/23 08:04:56;;;;;;;57.93;14.00;;;;;;;10.44;100.00;101141.59;5071769;28;20806;-70
2021/01/23 08:07:30;;;;;;;56.10;13.83;;;;;;;10.59;100.00;101142.47;5064883;28;20473;-70
2021/01/23 08:10:18;;;;;;;55.23;12.70;;;;;;;10.74;100.00;101134.50;5072379;28;20863;-71
2021/01/23 08:13:08;;;;;;;58.70;15.23;;;;;;;10.81;100.00;101135.81;5073163;28;20920;-69
2021/01/23 08:15:38;;;;;;;51.67;11.60;;;;;;;10.83;100.00;101127.81;5054270;28;20444;-68
2021/01/23 08:18:18;;;;;;;49.80;10.90;;;;;;;10.97;100.00;101135.72;5069193;28;20411;-73
2021/01/23 08:20:43;;;;;;;56.00;11.30;;;;;;;11.03;100.00;101137.97;5053646;28;20928;-69
2021/01/23 08:23:13;;;;;;;55.20;10.60;;;;;;;11.19;100.00;101140.47;5053108;28;20408;-70
2021/01/23 08:25:46;;;;;;;52.77;10.83;;;;;;;11.31;100.00;101130.94;5057005;28;20389;-69
2021/01/23 08:28:13;;;;;;;53.60;12.27;;;;;;;11.43;100.00;101131.97;5060247;28;21016;-73
2021/01/23 08:30:39;;;;;;;53.67;13.13;;;;;;;11.50;100.00;101130.63;5065950;28;20975;-71
2021/01/23 08:33:10;;;;;;;52.13;10.97;;;;;;;11.58;100.00;101123.09;5060198;28;20506;-71
2021/01/23 08:35:38;;;;;;;59.93;12.30;;;;;;;11.64;100.00;101128.81;5072810;28;20174;-73
2021/01/23 08:38:10;;;;;;;54.07;13.60;;;;;;;11.67;100.00;101123.31;5072868;28;20413;-72
2021/01/23 08:40:38;;;;;;;55.10;11.20;;;;;;;11.78;100.00;101119.97;5073083;28;20399;-72
2021/01/23 08:43:04;;;;;;;55.20;10.87;;;;;;;11.89;100.00;101114.91;5073179;28;20844;-72
2021/01/23 08:45:30;;;;;;;53.20;11.40;;;;;;;12.02;100.00;101111.47;5072570;28;20953;-72
2021/01/23 08:47:55;;;;;;;57.80;11.60;;;;;;;12.20;100.00;101107.56;5072857;28;20457;-72
2021/01/23 08:50:21;;;;;;;54.00;9.23;;;;;;;12.39;100.00;101104.50;5072495;28;20902;-73
2021/01/23 08:52:46;;;;;;;54.67;11.30;;;;;;;12.57;100.00;101090.09;5072634;28;20159;-72
2021/01/23 08:55:12;;;;;;;57.73;10.87;;;;;;;12.70;100.00;101100.63;5072645;28;20240;-72
2021/01/23 08:57:38;;;;;;;54.00;10.23;;;;;;;12.82;100.00;101101.53;5072601;28;20165;-71
2021/01/23 09:00:09;;;;;;;52.57;11.37;;;;;;;13.01;100.00;101088.75;5072462;28;20165;-72
2021/01/23 09:02:35;;;;;;;51.50;10.57;;;;;;;13.24;100.00;101095.91;5072653;28;20638;-72
2021/01/23 09:05:00;;;;;;;60.90;13.33;;;;;;;13.37;100.00;101093.19;5054660;28;20418;-72
2021/01/23 09:07:26;;;;;;;58.50;14.83;;;;;;;13.59;100.00;101087.19;5072062;28;20164;-72
2021/01/23 09:09:51;;;;;;;60.83;18.00;;;;;;;13.84;100.00;101091.50;5072018;28;20242;-72
2021/01/23 09:12:17;;;;;;;61.90;18.57;;;;;;;14.13;100.00;101082.22;5072096;28;20173;-71
2021/01/23 09:14:42;;;;;;;62.23;19.60;;;;;;;14.24;100.00;101078.75;5071860;28;20259;-73
2021/01/23 09:17:08;;;;;;;61.37;20.73;;;;;;;14.48;100.00;101075.19;5072065;28;20164;-71
2021/01/23 09:19:34;;;;;;;62.37;19.93;;;;;;;14.94;100.00;101075.06;5071671;28;20161;-71
2021/01/23 09:21:59;;;;;;;65.47;30.27;;;;;;;15.30;100.00;101065.97;5056183;28;20792;-72
2021/01/23 09:24:25;;;;;;;66.33;34.03;;;;;;;15.38;100.00;101066.19;5052186;28;20180;-71
2021/01/23 09:26:50;;;;;;;68.80;37.53;;;;;;;16.00;100.00;101057.50;5052731;28;20213;-71
2021/01/23 09:29:16;;;;;;;69.27;44.23;;;;;;;16.37;100.00;101055.19;5058509;28;20191;-70
2021/01/23 09:31:44;;;;;;;77.50;54.00;;;;;;;16.63;100.00;101052.13;5069121;28;20199;-71
2021/01/23 09:34:11;;;;;;;77.23;49.37;;;;;;;16.40;100.00;101053.25;5068086;28;20160;-72
2021/01/23 09:36:36;;;;;;;81.40;54.83;;;;;;;16.78;100.00;101045.50;5063554;28;20518;-72
2021/01/23 09:39:02;;;;;;;77.00;39.73;;;;;;;17.09;100.00;101040.13;5060410;28;20549;-70
2021/01/23 09:41:28;;;;;;;61.10;15.97;;;;;;;17.14;100.00;101040.53;5061458;28;20252;-71
2021/01/23 09:43:54;;;;;;;67.83;21.57;;;;;;;17.71;100.00;101038.91;5053690;28;20200;-73
2021/01/23 09:46:20;;;;;;;61.77;17.83;;;;;;;18.11;100.00;101028.06;5052481;28;20169;-72
2021/01/23 09:48:46;;;;;;;61.17;14.07;;;;;;;18.26;100.00;101018.63;5070802;28;20500;-72
2021/01/23 09:51:12;;;;;;;71.80;28.60;;;;;;;18.10;100.00;101029.06;5071552;28;20968;-72
2021/01/23 09:53:38;;;;;;;72.23;31.20;;;;;;;17.86;100.00;101026.03;5054936;28;20407;-71
2021/01/23 09:56:04;;;;;;;62.10;14.70;;;;;;;18.10;100.00;101012.25;5050994;28;20242;-71
2021/01/23 09:58:30;;;;;;;60.67;14.47;;;;;;;17.87;100.00;101017.91;5067160;28;20490;-71
2021/01/23 10:00:55;;;;;;;70.83;13.63;;;;;;;18.05;100.00;101014.50;5065934;28;20494;-70
2021/01/23 10:03:21;;;;;;;90.13;54.80;;;;;;;17.78;100.00;101017.94;5064866;28;20157;-70
2021/01/23 10:05:46;;;;;;;165.07;149.70;;;;;;;17.63;100.00;101014.84;5069264;28;20218;-72
2021/01/23 10:08:12;;;;;;;61.97;14.23;;;;;;;17.45;100.00;101010.22;5070244;28;20649;-72
2021/01/23 10:10:37;;;;;;;62.03;10.70;;;;;;;18.02;100.00;101002.34;5070475;28;20244;-72
2021/01/23 10:13:03;;;;;;;61.17;9.70;;;;;;;18.97;100.00;100996.75;5071133;28;20166;-71
2021/01/23 10:15:32;;;;;;;76.73;36.43;;;;;;;19.91;100.00;100997.06;5070873;28;20153;-69
2021/01/23 10:17:58;;;;;;;76.63;33.27;;;;;;;20.02;100.00;100997.78;5070634;28;20182;-72
2021/01/23 10:20:23;;;;;;;62.00;16.60;;;;;;;20.27;100.00;100977.44;5070861;28;20430;-72
2021/01/23 10:22:49;;;;;;;63.97;22.17;;;;;;;20.15;100.00;100971.53;5070913;28;20534;-73
2021/01/23 10:25:14;;;;;;;91.83;62.17;;;;;;;20.35;100.00;100967.63;5070370;28;20239;-72
2021/01/23 10:27:40;;;;;;;74.63;35.27;;;;;;;20.32;100.00;100975.09;5070496;28;20223;-73
2021/01/23 10:30:06;;;;;;;81.60;45.20;;;;;;;20.22;100.00;100965.41;5070394;28;20188;-72
2021/01/23 10:32:32;;;;;;;82.17;52.27;;;;;;;19.71;100.00;100968.09;5070650;28;20165;-72
2021/01/23 10:34:57;;;;;;;67.63;27.63;;;;;;;19.85;100.00;100964.84;5070345;28;20389;-70
2021/01/23 10:37:23;;;;;;;69.73;16.30;;;;;;;20.23;100.00;100948.38;5071192;28;20245;-72
2021/01/23 10:39:48;;;;;;;72.63;21.03;;;;;;;20.74;100.00;100948.44;5069528;28;20164;-72
2021/01/23 10:42:14;;;;;;;113.67;97.67;;;;;;;19.98;100.00;100954.59;5070059;28;20163;-71
2021/01/23 10:44:40;;;;;;;88.53;42.30;;;;;;;20.22;100.00;100960.06;5070395;28;20230;-72
2021/01/23 10:47:11;;;;;;;68.90;27.47;;;;;;;20.23;100.00;100955.56;5070282;28;20152;-71
2021/01/23 10:49:36;;;;;;;67.03;19.97;;;;;;;20.37;100.00;100938.94;5070085;28;20537;-72
2021/01/23 10:52:02;;;;;;;130.90;114.87;;;;;;;19.71;100.00;100973.41;5052341;28;20419;-72
2021/01/23 10:54:28;;;;;;;73.73;18.07;;;;;;;19.50;100.00;100958.59;5070505;28;20172;-72
2021/01/23 10:56:54;;;;;;;63.83;13.40;;;;;;;19.81;100.00;100950.19;5070452;28;20156;-72
2021/01/23 10:59:20;;;;;;;92.13;42.00;;;;;;;19.89;100.00;100944.88;5070240;28;20164;-72
2021/01/23 11:01:46;;;;;;;195.23;176.73;;;;;;;19.19;100.00;100942.16;5070016;28;20421;-73
2021/01/23 11:04:11;;;;;;;73.90;27.17;;;;;;;19.24;100.00;100944.38;5070103;28;20444;-72
2021/01/23 11:06:37;;;;;;;76.50;35.77;;;;;;;19.76;100.00;100928.47;5070335;28;20497;-72
2021/01/23 11:09:03;;;;;;;81.93;40.30;;;;;;;19.37;100.00;100932.34;5070333;28;20267;-71
2021/01/23 11:11:31;;;;;;;66.20;10.90;;;;;;;19.89;100.00;100943.06;5069942;28;20164;-72